Sanford, Michigan
Current Conditions -  °F | °C
As of 7:55 PM on Monday 24 Nov 2014 (Local Time) from KIKW Reporting Station
Overcast Overcast  
Wind Chill: 25°   Ceiling: 1600
Heat Index: 35°   Visibility: 10mi
Dew Point: 32°   Wind: 18mph
Humidity: 88%   Direction: 230°SW
Pressure: 29.44"   Gusts: 39mph
Location:  43.67°N, 84.38°W
Report Text: KIKW 250055Z AUTO 23016G34KT 10SM OVC016 02/00 A2944 RMK AO2 T00180000
Loading
Personal Weather Stations






























Interactive Weather Map New forecast layout! Learn more

10-Day Weather Forecast

Advertisements
Track Severe Weather on mobile